Portada
METAR-TAF:

METAR-TAF

Aeroports :

Tacna, Perú

latitud: 18-04S, longitud: 070-18W, altitud: 468 m

Observació

L'informe es va fer fa 7 hores i 15 minuts, a les 19:00 UTC
Vent 10 kt del Sud/Sud-Oest
Temperatura 22°C
Humitat 60%
Pressió 1016 hPa
Visibilitat 10 km o més
Escasses núvols a una alçada de 4000 ft

METAR: SPTN 241900Z 21010KT 9999 FEW040 22/14 Q1016 RMK PP000

Hora: 21:15 (02:15 UTC)

Pronòstic

L'informe es va fer fa 9 hores i 15 minuts, a les 17:00 UTC
Pronòstic vàlid del 24 a les 18 UTC al 25 a les 18 UTC
Vent 10 kt del Sud-Oest
Visibilitat 10 km o més
Escasses núvols a una alçada de 3000 ft
A partir de les 25 a les 0000 UTC
Vent 5 kt del Oest/Sud-Oest
Visibilitat: 8000 m
Cel cobert a una alçada de 1500 ft
A partir de les 25 a les 1300 UTC
Vent 4 kt del Sud/Sud-Oest
Visibilitat 10 km o més
Cel ennuvolat a una alçada de 2500 ft

TAF: SPTN 241700Z 2418/2518 22010KT 9999 FEW030 TX22/2419Z TN14/2510Z FM250000 25005KT 8000 OVC015 FM251300 20004KT 9999 BKN025

Observacions i pronòstics meteorològics de més de 4000 aeroports (METAR i TAF).

Les estacions disponibles són els punts grocs i vermells al mapa.

Posi el ratolí al punt desitjat per veure el nom de l'estació.

Feu clic per veure les observacions i els pronòstics meteorològics.

Per canviar el mapa: feu clic els botons verds amb una creu de color negre per apropar; al botó verd amb un guió per allunyar la imatge; o en les fletxes verdes per a mapes adjacents.


METAR-TAF: